Time;durP1;ratioP1;P1;durP2;ratioP2;P2;SDS_P1;SDS_P2;PMS_P1;PMS_P2;Temp;Humidity;BMP_temperature;BMP_pressure;BME280_temperature;BME280_humidity;BME280_pressure;Samples;Min_cycle;Max_cycle;Signal;HPM_P1;HPM_P2
2022/12/31 00:00:57;;;;;;;0.32;0.30;;;11.80;96.40;;;;;;5001211;28;20029;-82
2022/12/31 00:03:22;;;;;;;0.43;0.20;;;11.80;96.40;;;;;;5006375;28;20030;-82
2022/12/31 00:05:48;;;;;;;0.20;0.20;;;11.80;96.40;;;;;;5008999;28;20073;-82
2022/12/31 00:08:14;;;;;;;0.13;0.13;;;11.80;96.30;;;;;;5000380;28;20058;-82
2022/12/31 00:10:40;;;;;;;0.32;0.10;;;11.90;96.10;;;;;;5002904;28;20034;-82
2022/12/31 00:13:10;;;;;;;0.30;0.22;;;12.00;95.90;;;;;;5000327;28;20137;-81
2022/12/31 00:15:36;;;;;;;0.10;0.10;;;12.00;95.80;;;;;;5000960;28;20057;-82
2022/12/31 00:18:02;;;;;;;0.47;0.10;;;12.10;95.50;;;;;;5003519;28;20060;-81
2022/12/31 00:20:28;;;;;;;0.90;0.30;;;12.10;95.40;;;;;;5019731;28;20110;-81
2022/12/31 00:22:53;;;;;;;0.20;0.10;;;12.10;95.40;;;;;;5019881;28;20019;-83
2022/12/31 00:25:19;;;;;;;0.75;0.20;;;12.10;95.40;;;;;;5004134;28;20409;-81
2022/12/31 00:27:45;;;;;;;0.10;0.10;;;12.00;95.40;;;;;;5018662;28;20049;-81
2022/12/31 00:30:11;;;;;;;0.10;0.10;;;12.10;95.40;;;;;;5004441;28;20027;-81
2022/12/31 00:32:36;;;;;;;0.30;0.30;;;12.20;95.30;;;;;;5004050;28;20030;-82
2022/12/31 00:35:02;;;;;;;0.10;0.10;;;12.20;95.10;;;;;;5003352;28;20033;-81
2022/12/31 00:37:28;;;;;;;0.55;0.25;;;12.30;95.10;;;;;;5003548;28;20392;-81
2022/12/31 00:39:54;;;;;;;0.25;0.10;;;12.30;95.00;;;;;;5002219;28;20058;-81
2022/12/31 00:42:19;;;;;;;0.10;0.10;;;12.10;95.10;;;;;;5001989;28;20044;-83
2022/12/31 00:44:45;;;;;;;0.25;0.17;;;12.10;95.30;;;;;;5005641;28;20066;-81
2022/12/31 00:47:11;;;;;;;0.22;0.10;;;12.00;95.50;;;;;;5001617;28;20057;-81
2022/12/31 00:49:36;;;;;;;0.73;0.20;;;12.00;95.70;;;;;;5003215;28;20034;-82
2022/12/31 00:52:02;;;;;;;0.10;0.10;;;12.10;95.50;;;;;;5021827;28;20030;-82
2022/12/31 00:54:28;;;;;;;0.10;0.10;;;12.20;95.40;;;;;;5004735;28;20022;-82
2022/12/31 00:56:53;;;;;;;0.80;0.10;;;12.20;95.20;;;;;;5001978;28;20125;-80
2022/12/31 00:59:19;;;;;;;1.98;0.20;;;12.30;94.90;;;;;;5003130;28;20026;-80
2022/12/31 01:01:44;;;;;;;0.00;0.00;;;12.50;94.80;;;;;;5003964;28;20030;-82
2022/12/31 01:04:17;;;;;;;0.35;0.10;;;12.40;94.60;;;;;;5018177;28;20022;-82
2022/12/31 01:06:43;;;;;;;0.00;0.00;;;12.40;94.60;;;;;;5001811;28;20031;-82
2022/12/31 01:09:11;;;;;;;0.20;0.20;;;12.50;94.80;;;;;;5002916;28;20367;-83
2022/12/31 01:11:37;;;;;;;0.10;0.10;;;12.40;94.70;;;;;;4983478;28;20054;-82
2022/12/31 01:14:09;;;;;;;0.00;0.00;;;12.50;94.90;;;;;;4997854;28;20050;-82
2022/12/31 01:16:40;;;;;;;0.10;0.10;;;12.60;94.50;;;;;;4984535;28;20038;-80
2022/12/31 01:19:10;;;;;;;0.10;0.10;;;12.90;94.00;;;;;;4981862;28;20035;-82
2022/12/31 01:21:38;;;;;;;0.20;0.15;;;13.00;93.70;;;;;;5000341;28;20026;-82
2022/12/31 01:24:05;;;;;;;0.28;0.28;;;12.90;93.80;;;;;;5000838;28;20023;-82
2022/12/31 01:26:30;;;;;;;0.10;0.10;;;12.90;93.90;;;;;;5001641;28;20039;-83
2022/12/31 01:28:56;;;;;;;1.65;0.28;;;12.80;94.10;;;;;;5000891;28;20058;-82
2022/12/31 01:31:23;;;;;;;0.08;0.08;;;12.80;94.40;;;;;;5002539;28;20079;-81
2022/12/31 01:33:50;;;;;;;0.68;0.20;;;12.80;94.20;;;;;;5004505;28;20031;-82
2022/12/31 01:36:25;;;;;;;0.43;0.10;;;12.80;94.20;;;;;;5001024;28;20069;-82
2022/12/31 01:38:50;;;;;;;0.10;0.10;;;12.80;94.20;;;;;;5000546;28;20037;-82
2022/12/31 01:41:19;;;;;;;0.65;0.13;;;12.90;94.20;;;;;;5002786;28;20022;-82
2022/12/31 01:43:58;;;;;;;3.20;0.10;;;12.90;94.10;;;;;;5002489;28;20500;-82
2022/12/31 01:47:04;;;;;;;0.88;0.10;;;13.00;94.00;;;;;;5002454;28;20029;-82
2022/12/31 01:49:55;;;;;;;0.55;0.20;;;13.00;93.80;;;;;;4958210;28;20045;-82
2022/12/31 01:52:29;;;;;;;0.10;0.10;;;13.10;93.60;;;;;;5002190;28;20031;-82
2022/12/31 01:55:05;;;;;;;0.95;0.65;;;13.20;93.40;;;;;;5001116;28;20033;-82
2022/12/31 01:57:31;;;;;;;0.13;0.13;;;13.20;93.40;;;;;;5000637;28;20022;-82
2022/12/31 01:59:59;;;;;;;0.50;0.20;;;13.10;93.50;;;;;;5002291;28;20074;-82
2022/12/31 02:02:25;;;;;;;0.10;0.10;;;13.10;93.50;;;;;;5002420;28;20053;-82
2022/12/31 02:04:54;;;;;;;0.17;0.17;;;13.10;93.50;;;;;;5002870;28;20054;-80
2022/12/31 02:07:20;;;;;;;0.68;0.17;;;13.10;93.40;;;;;;5003004;28;20018;-83
2022/12/31 02:09:45;;;;;;;0.10;0.10;;;13.10;93.30;;;;;;5002054;28;20040;-82
2022/12/31 02:12:11;;;;;;;0.47;0.10;;;13.10;93.20;;;;;;5002524;28;20105;-83
2022/12/31 02:14:44;;;;;;;0.20;0.20;;;13.20;93.10;;;;;;5008336;28;20122;-82
2022/12/31 02:17:13;;;;;;;0.10;0.10;;;13.20;93.10;;;;;;5005134;28;20084;-82
2022/12/31 02:19:41;;;;;;;0.57;0.10;;;13.10;92.90;;;;;;5008990;28;20343;-80
2022/12/31 02:22:18;;;;;;;0.32;0.17;;;13.10;93.00;;;;;;5016959;28;20014;-80
2022/12/31 02:25:13;;;;;;;0.43;0.10;;;13.00;93.10;;;;;;5018197;28;20018;-80
2022/12/31 02:27:48;;;;;;;0.20;0.20;;;13.00;93.10;;;;;;5014182;28;20034;-81
2022/12/31 02:30:25;;;;;;;0.10;0.10;;;13.00;93.00;;;;;;5007437;28;20448;-82
2022/12/31 02:33:11;;;;;;;0.20;0.10;;;13.00;93.10;;;;;;5007629;28;20018;-82
2022/12/31 02:35:51;;;;;;;0.45;0.10;;;13.00;93.10;;;;;;5006475;28;20134;-80
2022/12/31 02:38:25;;;;;;;0.00;0.00;;;13.00;93.00;;;;;;5007388;28;20134;-83
2022/12/31 02:40:54;;;;;;;0.47;0.20;;;13.10;92.70;;;;;;5004751;28;20130;-81
2022/12/31 02:43:19;;;;;;;0.10;0.10;;;13.10;92.70;;;;;;5001706;28;20018;-81
2022/12/31 02:46:18;;;;;;;0.15;0.15;;;13.20;92.50;;;;;;5002434;28;20082;-80
2022/12/31 02:49:14;;;;;;;0.10;0.10;;;13.20;92.50;;;;;;5000285;28;20034;-81
2022/12/31 02:52:15;;;;;;;0.22;0.10;;;13.20;92.40;;;;;;5001710;28;20073;-81
2022/12/31 02:54:56;;;;;;;0.17;0.08;;;13.30;92.20;;;;;;5003221;28;20022;-81
2022/12/31 02:57:35;;;;;;;0.20;0.10;;;13.20;92.20;;;;;;5005122;28;20029;-79
2022/12/31 03:02:53;;;;;;;0.10;0.10;;;13.20;92.40;;;;;;5001291;28;20369;-81
2022/12/31 03:05:23;;;;;;;0.30;0.10;;;13.10;92.30;;;;;;5013696;28;20050;-79
2022/12/31 03:07:48;;;;;;;0.10;0.10;;;13.20;92.30;;;;;;5017026;28;20033;-78
2022/12/31 03:10:14;;;;;;;0.47;0.20;;;13.20;92.30;;;;;;5016924;28;20299;-79
2022/12/31 03:12:46;;;;;;;0.50;0.20;;;13.20;92.30;;;;;;5016019;28;20034;-79
2022/12/31 03:15:19;;;;;;;0.10;0.10;;;13.30;92.20;;;;;;5016974;28;20022;-80
2022/12/31 03:18:15;;;;;;;0.15;0.15;;;13.30;91.90;;;;;;5017570;28;20041;-80
2022/12/31 03:23:48;;;;;;;0.73;0.20;;;13.30;91.90;;;;;;5014915;28;20160;-81
2022/12/31 03:26:14;;;;;;;0.20;0.20;;;13.30;91.90;;;;;;5001047;28;20417;-81
2022/12/31 03:28:46;;;;;;;0.20;0.20;;;13.30;91.70;;;;;;5000252;28;20041;-82
2022/12/31 03:31:12;;;;;;;0.15;0.13;;;13.30;91.70;;;;;;5002608;28;20033;-82
2022/12/31 03:33:40;;;;;;;0.28;0.10;;;13.30;91.70;;;;;;5000627;28;20030;-81
2022/12/31 03:36:12;;;;;;;0.20;0.10;;;13.30;91.60;;;;;;4999386;28;20038;-82
2022/12/31 03:38:38;;;;;;;0.17;0.17;;;13.40;91.50;;;;;;4992496;28;20038;-81
2022/12/31 03:41:04;;;;;;;0.10;0.10;;;13.40;91.20;;;;;;5000797;28;20142;-81
2022/12/31 03:43:29;;;;;;;0.10;0.10;;;13.50;91.10;;;;;;5002717;28;20030;-81
2022/12/31 03:45:58;;;;;;;0.22;0.10;;;13.50;91.00;;;;;;4986609;28;20027;-80
2022/12/31 03:48:24;;;;;;;0.00;0.00;;;13.60;90.90;;;;;;4997541;28;20027;-82
2022/12/31 03:50:50;;;;;;;0.35;0.10;;;13.50;90.80;;;;;;4983398;28;20385;-81
2022/12/31 03:53:16;;;;;;;0.10;0.00;;;13.50;90.80;;;;;;4981383;28;20113;-81
2022/12/31 03:55:42;;;;;;;0.05;0.00;;;13.60;90.70;;;;;;4990798;28;20085;-82
2022/12/31 03:58:08;;;;;;;0.10;0.10;;;13.50;90.60;;;;;;5022285;28;20034;-83
2022/12/31 04:00:33;;;;;;;0.10;0.10;;;13.50;90.80;;;;;;5002809;28;20417;-83
2022/12/31 04:02:59;;;;;;;0.20;0.20;;;13.50;90.70;;;;;;5001481;28;20052;-81
2022/12/31 04:05:25;;;;;;;1.90;0.20;;;13.50;90.60;;;;;;5016427;28;20073;-82
2022/12/31 04:07:51;;;;;;;0.45;0.20;;;13.50;90.70;;;;;;5021285;28;20073;-83
2022/12/31 04:10:18;;;;;;;0.10;0.10;;;13.50;90.70;;;;;;5003340;28;20105;-82
2022/12/31 04:12:44;;;;;;;0.43;0.10;;;13.50;90.70;;;;;;5002382;28;20049;-82
2022/12/31 04:15:15;;;;;;;0.30;0.10;;;13.60;90.60;;;;;;5003593;28;20084;-83
2022/12/31 04:17:41;;;;;;;0.68;0.20;;;13.60;90.50;;;;;;5006721;28;20386;-83
2022/12/31 04:20:07;;;;;;;0.20;0.20;;;13.70;90.40;;;;;;5003042;28;20033;-80
2022/12/31 04:22:33;;;;;;;0.30;0.10;;;13.70;90.30;;;;;;5003805;28;20038;-82
2022/12/31 04:24:58;;;;;;;0.10;0.10;;;13.70;90.20;;;;;;5001762;28;20033;-82
2022/12/31 04:27:24;;;;;;;0.77;0.20;;;13.80;90.10;;;;;;5001211;28;20045;-82
2022/12/31 04:29:49;;;;;;;0.38;0.13;;;13.90;89.80;;;;;;5003054;28;20508;-82
2022/12/31 04:32:15;;;;;;;0.20;0.10;;;13.90;89.50;;;;;;5003346;28;20026;-82
2022/12/31 04:34:41;;;;;;;0.20;0.10;;;13.90;89.40;;;;;;5000239;28;20033;-82
2022/12/31 04:37:06;;;;;;;0.17;0.17;;;13.90;89.30;;;;;;4999975;28;20133;-82
2022/12/31 04:39:32;;;;;;;0.00;0.00;;;13.90;89.20;;;;;;4999216;28;20030;-82
2022/12/31 04:41:58;;;;;;;0.65;0.10;;;13.90;89.30;;;;;;5001955;28;20037;-83
2022/12/31 04:44:23;;;;;;;0.20;0.20;;;14.00;89.00;;;;;;5004733;28;20037;-83
2022/12/31 04:46:49;;;;;;;1.17;0.10;;;14.00;88.80;;;;;;5001371;28;20023;-82
2022/12/31 04:49:14;;;;;;;0.25;0.10;;;14.00;88.60;;;;;;5003538;28;20081;-82
2022/12/31 04:51:40;;;;;;;0.80;0.10;;;14.00;88.40;;;;;;5002110;28;20026;-82
2022/12/31 04:54:06;;;;;;;1.00;0.10;;;13.90;88.40;;;;;;5000817;28;20082;-83
2022/12/31 04:56:35;;;;;;;0.43;0.15;;;14.00;88.70;;;;;;5001622;28;20077;-83
2022/12/31 04:59:01;;;;;;;0.10;0.10;;;13.90;88.60;;;;;;5002355;28;20026;-82
2022/12/31 05:01:26;;;;;;;0.05;0.05;;;14.00;88.70;;;;;;5002376;28;20038;-82
2022/12/31 05:03:52;;;;;;;0.10;0.10;;;14.10;88.00;;;;;;5006303;28;20031;-83
2022/12/31 05:06:20;;;;;;;0.30;0.10;;;14.20;87.70;;;;;;5009350;28;20038;-82
2022/12/31 05:08:46;;;;;;;0.10;0.10;;;14.20;87.80;;;;;;5010700;28;20038;-82
2022/12/31 05:11:12;;;;;;;0.30;0.10;;;14.20;87.40;;;;;;5006356;28;20031;-83
2022/12/31 05:13:38;;;;;;;0.20;0.20;;;14.30;87.20;;;;;;5006110;28;20033;-83
2022/12/31 05:16:05;;;;;;;0.95;0.10;;;14.30;87.10;;;;;;5006740;28;20034;-81
2022/12/31 05:18:31;;;;;;;0.10;0.10;;;14.30;86.90;;;;;;5005284;28;20026;-82
2022/12/31 05:20:57;;;;;;;0.00;0.00;;;14.40;87.00;;;;;;5006367;28;20022;-82
2022/12/31 05:23:23;;;;;;;0.30;0.30;;;14.30;86.80;;;;;;5007034;28;20041;-82
2022/12/31 05:25:49;;;;;;;0.10;0.10;;;14.30;87.10;;;;;;5007413;28;20046;-83
2022/12/31 05:28:15;;;;;;;0.15;0.15;;;14.30;87.10;;;;;;5006402;28;20029;-81
2022/12/31 05:30:41;;;;;;;0.32;0.20;;;14.30;87.20;;;;;;5007632;28;20085;-82
2022/12/31 05:33:07;;;;;;;0.10;0.10;;;14.30;87.00;;;;;;5006302;28;20145;-82
2022/12/31 05:35:33;;;;;;;0.20;0.20;;;14.30;87.00;;;;;;5007618;28;20041;-82
2022/12/31 05:37:59;;;;;;;0.20;0.10;;;14.30;87.00;;;;;;5010225;28;20018;-80
2022/12/31 05:40:26;;;;;;;0.20;0.20;;;14.30;87.20;;;;;;4992364;28;20055;-82
2022/12/31 05:42:51;;;;;;;0.20;0.20;;;14.30;87.00;;;;;;4987923;28;20027;-81
2022/12/31 05:45:17;;;;;;;0.28;0.20;;;14.30;87.10;;;;;;4985889;28;20026;-81
2022/12/31 05:47:43;;;;;;;0.10;0.10;;;14.20;87.20;;;;;;4987486;28;20058;-82
2022/12/31 05:50:10;;;;;;;0.10;0.10;;;14.20;87.30;;;;;;5001966;28;20401;-80
2022/12/31 05:52:36;;;;;;;0.10;0.10;;;14.20;87.40;;;;;;5019009;28;20026;-81
2022/12/31 05:55:02;;;;;;;0.10;0.10;;;14.10;87.80;;;;;;5019134;28;20155;-80
2022/12/31 05:57:28;;;;;;;0.10;0.10;;;14.10;87.80;;;;;;5034702;28;20034;-81
2022/12/31 05:59:53;;;;;;;0.55;0.28;;;14.00;88.10;;;;;;5019426;28;20065;-82
2022/12/31 06:02:20;;;;;;;0.30;0.30;;;13.80;88.50;;;;;;5011815;28;20030;-83
2022/12/31 06:04:46;;;;;;;0.30;0.10;;;13.70;89.10;;;;;;5006738;28;20026;-83
2022/12/31 06:07:12;;;;;;;0.13;0.10;;;13.60;89.60;;;;;;5006775;28;20135;-83
2022/12/31 06:09:44;;;;;;;0.10;0.10;;;13.50;90.00;;;;;;5006595;28;20058;-81
2022/12/31 06:12:10;;;;;;;0.25;0.25;;;13.40;90.10;;;;;;5023717;28;20050;-82
2022/12/31 06:14:36;;;;;;;0.40;0.40;;;13.40;90.20;;;;;;5003950;28;20030;-83
2022/12/31 06:17:02;;;;;;;0.50;0.50;;;13.30;90.30;;;;;;5004353;28;20031;-82
2022/12/31 06:19:28;;;;;;;0.60;0.60;;;13.30;90.50;;;;;;5004705;28;20169;-83
2022/12/31 06:21:53;;;;;;;0.60;0.60;;;13.20;90.70;;;;;;5004973;28;20022;-82
2022/12/31 06:24:19;;;;;;;0.30;0.30;;;13.20;90.70;;;;;;5006992;28;20018;-81
2022/12/31 06:26:45;;;;;;;0.40;0.40;;;13.10;90.80;;;;;;5009000;28;20038;-82
2022/12/31 06:29:10;;;;;;;0.52;0.47;;;13.10;91.00;;;;;;5005375;28;20018;-82
2022/12/31 06:31:36;;;;;;;0.32;0.32;;;13.00;91.10;;;;;;5006838;28;20473;-83
2022/12/31 06:34:02;;;;;;;0.30;0.30;;;13.00;91.30;;;;;;5003954;28;20033;-82
2022/12/31 06:36:28;;;;;;;0.32;0.20;;;13.00;91.30;;;;;;5003629;28;20112;-82
2022/12/31 06:38:54;;;;;;;0.32;0.20;;;13.00;91.30;;;;;;5020028;28;20057;-82
2022/12/31 06:41:20;;;;;;;0.40;0.30;;;13.10;91.30;;;;;;5006833;28;20046;-82
2022/12/31 06:43:46;;;;;;;0.20;0.20;;;13.10;91.20;;;;;;5006839;28;20382;-83
2022/12/31 06:46:14;;;;;;;0.65;0.30;;;13.20;91.20;;;;;;5011790;28;20030;-81
2022/12/31 06:48:41;;;;;;;0.30;0.30;;;13.20;91.10;;;;;;5007104;28;20026;-82
2022/12/31 06:51:19;;;;;;;0.20;0.20;;;13.20;91.10;;;;;;5021482;28;20040;-81
2022/12/31 06:53:46;;;;;;;1.55;0.20;;;13.20;91.10;;;;;;5006397;28;20114;-82
2022/12/31 06:56:20;;;;;;;0.47;0.20;;;13.20;91.30;;;;;;5004480;28;20702;-82
2022/12/31 06:58:47;;;;;;;0.50;0.35;;;13.30;91.10;;;;;;5003937;28;20038;-82
2022/12/31 07:01:37;;;;;;;0.20;0.20;;;13.30;91.10;;;;;;5006819;28;20023;-82
2022/12/31 07:04:33;;;;;;;0.10;0.10;;;13.30;91.30;;;;;;5007852;28;20027;-82
2022/12/31 07:07:14;;;;;;;0.65;0.35;;;13.30;91.40;;;;;;5008023;28;20959;-81
2022/12/31 07:10:17;;;;;;;0.30;0.30;;;13.20;91.50;;;;;;5004408;28;20030;-82
2022/12/31 07:13:04;;;;;;;0.30;0.30;;;13.20;91.70;;;;;;4997383;28;20078;-82
2022/12/31 07:15:50;;;;;;;0.32;0.13;;;13.10;91.80;;;;;;5004143;28;20049;-82
2022/12/31 07:18:24;;;;;;;0.57;0.20;;;13.10;91.90;;;;;;4991854;28;20038;-83
2022/12/31 07:20:50;;;;;;;0.15;0.15;;;13.10;92.20;;;;;;4989645;28;20034;-81
2022/12/31 07:23:17;;;;;;;0.30;0.20;;;13.10;92.00;;;;;;5002481;28;20101;-81
2022/12/31 07:26:15;;;;;;;0.20;0.17;;;13.10;92.00;;;;;;5002720;28;20027;-82
2022/12/31 07:28:55;;;;;;;0.50;0.30;;;13.10;92.00;;;;;;4994969;28;20053;-82
2022/12/31 07:31:45;;;;;;;0.68;0.43;;;13.00;92.00;;;;;;4998044;28;20018;-78
2022/12/31 07:34:24;;;;;;;1.17;0.50;;;13.00;92.00;;;;;;4993406;28;20022;-78
2022/12/31 07:37:10;;;;;;;0.52;0.40;;;13.00;92.00;;;;;;4997962;28;20488;-78
2022/12/31 07:40:04;;;;;;;0.35;0.30;;;13.00;92.00;;;;;;4997399;28;20046;-78
2022/12/31 07:42:57;;;;;;;1.08;0.30;;;13.00;91.90;;;;;;4999393;28;20038;-79
2022/12/31 07:45:29;;;;;;;0.73;0.38;;;13.10;91.80;;;;;;4999132;28;20393;-78
2022/12/31 07:47:55;;;;;;;0.30;0.30;;;13.10;91.70;;;;;;5001542;28;20030;-78
2022/12/31 07:50:21;;;;;;;0.68;0.20;;;13.10;91.60;;;;;;4999221;28;20022;-78
2022/12/31 07:52:47;;;;;;;0.30;0.30;;;13.20;91.50;;;;;;4999505;28;20457;-78
2022/12/31 07:55:13;;;;;;;0.43;0.40;;;13.20;91.30;;;;;;5000195;28;20030;-78
2022/12/31 07:58:00;;;;;;;0.30;0.30;;;13.20;91.10;;;;;;5014590;28;20045;-78
2022/12/31 08:00:28;;;;;;;0.10;0.10;;;13.20;90.90;;;;;;5002201;28;20041;-78
2022/12/31 08:03:38;;;;;;;0.57;0.32;;;13.20;90.70;;;;;;5000321;28;20026;-78
2022/12/31 08:06:29;;;;;;;0.38;0.38;;;13.30;90.40;;;;;;4939206;28;20041;-78
2022/12/31 08:09:10;;;;;;;0.55;0.52;;;13.30;90.10;;;;;;5001701;28;20038;-79
2022/12/31 08:11:52;;;;;;;0.15;0.15;;;13.30;89.90;;;;;;4997761;28;20054;-79
2022/12/31 08:14:18;;;;;;;0.32;0.32;;;13.30;89.50;;;;;;4984950;28;20026;-79
2022/12/31 08:16:45;;;;;;;0.20;0.20;;;13.30;89.10;;;;;;5002654;28;20038;-79
2022/12/31 08:19:31;;;;;;;0.47;0.40;;;13.30;88.90;;;;;;4994880;28;20042;-80
2022/12/31 08:22:05;;;;;;;0.40;0.30;;;13.30;88.40;;;;;;4985229;28;20053;-79
2022/12/31 08:24:47;;;;;;;0.40;0.40;;;13.40;88.00;;;;;;4979600;28;20023;-79
2022/12/31 08:27:34;;;;;;;0.30;0.20;;;13.50;87.40;;;;;;4979800;28;20035;-79
2022/12/31 08:30:18;;;;;;;0.20;0.20;;;13.40;86.70;;;;;;4984882;28;20393;-78
2022/12/31 08:33:11;;;;;;;1.20;0.47;;;13.40;86.30;;;;;;4995470;28;20022;-80
2022/12/31 08:36:28;;;;;;;0.35;0.35;;;13.40;86.10;;;;;;4999317;28;20117;-81
2022/12/31 08:39:21;;;;;;;0.30;0.28;;;13.30;86.20;;;;;;4983378;28;20050;-81
2022/12/31 08:41:50;;;;;;;0.75;0.20;;;13.30;86.30;;;;;;5003311;28;20050;-82
2022/12/31 08:44:24;;;;;;;0.22;0.22;;;13.30;86.30;;;;;;4999857;28;20038;-82
2022/12/31 08:46:53;;;;;;;1.33;0.50;;;13.30;86.10;;;;;;5001910;28;20578;-81
2022/12/31 08:49:19;;;;;;;0.30;0.30;;;13.30;85.80;;;;;;5002646;28;20022;-81
2022/12/31 08:51:45;;;;;;;1.27;0.20;;;13.30;85.70;;;;;;5026018;28;20026;-81
2022/12/31 08:54:11;;;;;;;0.35;0.20;;;13.30;85.90;;;;;;5017765;28;20085;-82
2022/12/31 08:56:43;;;;;;;0.50;0.30;;;13.30;86.00;;;;;;5003068;28;20117;-82
2022/12/31 08:59:33;;;;;;;0.95;0.30;;;13.50;86.10;;;;;;5002873;28;20091;-82
2022/12/31 09:02:38;;;;;;;0.35;0.30;;;13.80;85.80;;;;;;5004337;28;20397;-82
2022/12/31 09:05:16;;;;;;;0.35;0.20;;;14.10;84.80;;;;;;5005237;28;20014;-81
2022/12/31 09:07:48;;;;;;;0.55;0.32;;;14.50;83.60;;;;;;5002215;28;20014;-81
2022/12/31 09:10:23;;;;;;;0.38;0.38;;;14.60;82.30;;;;;;5003565;28;20061;-81
2022/12/31 09:13:31;;;;;;;1.65;0.70;;;14.80;81.50;;;;;;4982419;28;20023;-81
2022/12/31 09:16:01;;;;;;;0.45;0.40;;;15.10;80.50;;;;;;4967581;28;20537;-82
2022/12/31 09:18:28;;;;;;;0.43;0.40;;;15.40;79.60;;;;;;4960285;29;20066;-81
2022/12/31 09:20:54;;;;;;;0.77;0.43;;;15.40;78.70;;;;;;4962730;28;20462;-82
2022/12/31 09:23:20;;;;;;;1.55;0.40;;;15.40;78.40;;;;;;4984845;28;20050;-81
2022/12/31 09:26:10;;;;;;;0.30;0.30;;;15.30;78.10;;;;;;4993159;28;20054;-82
2022/12/31 09:29:26;;;;;;;0.40;0.40;;;15.30;78.00;;;;;;5013814;28;20022;-81
2022/12/31 09:32:24;;;;;;;0.40;0.40;;;15.30;77.70;;;;;;4979663;28;20484;-82
2022/12/31 09:34:58;;;;;;;0.32;0.32;;;15.30;77.40;;;;;;4968009;28;20033;-81
2022/12/31 09:37:48;;;;;;;0.40;0.40;;;15.30;77.10;;;;;;5003794;28;20030;-81
2022/12/31 09:40:41;;;;;;;0.30;0.30;;;15.40;76.90;;;;;;5006122;28;20022;-81
2022/12/31 09:43:44;;;;;;;0.60;0.60;;;15.40;76.80;;;;;;4997208;28;20018;-82
2022/12/31 09:46:35;;;;;;;2.63;0.50;;;15.40;76.30;;;;;;5010130;28;20022;-81
2022/12/31 09:49:19;;;;;;;0.47;0.20;;;15.40;76.00;;;;;;5003938;28;20042;-81
2022/12/31 09:52:15;;;;;;;0.20;0.20;;;15.40;75.60;;;;;;5013124;28;20041;-81
2022/12/31 09:55:08;;;;;;;0.40;0.40;;;15.50;75.30;;;;;;5027873;28;20037;-81
2022/12/31 09:58:01;;;;;;;0.50;0.30;;;15.70;74.70;;;;;;5006852;28;20061;-79
2022/12/31 10:00:52;;;;;;;0.43;0.40;;;15.90;73.70;;;;;;5028489;28;20026;-79
2022/12/31 10:03:51;;;;;;;0.30;0.30;;;16.20;73.00;;;;;;5016125;28;20033;-79
2022/12/31 10:07:04;;;;;;;0.50;0.43;;;16.40;71.80;;;;;;5023589;28;20022;-78
2022/12/31 10:09:29;;;;;;;0.90;0.43;;;16.70;71.10;;;;;;4993216;28;20046;-78
2022/12/31 10:12:04;;;;;;;2.83;0.60;;;17.10;69.70;;;;;;5009418;28;20109;-78
2022/12/31 10:14:49;;;;;;;0.57;0.40;;;17.30;68.10;;;;;;5012285;28;20023;-83
2022/12/31 10:17:42;;;;;;;0.77;0.40;;;17.40;67.30;;;;;;5010891;28;20412;-80
2022/12/31 10:20:45;;;;;;;1.38;0.52;;;17.40;67.10;;;;;;5006938;28;20030;-79
2022/12/31 10:23:47;;;;;;;1.80;0.47;;;17.80;66.00;;;;;;5011273;28;20034;-84
2022/12/31 10:26:21;;;;;;;0.55;0.40;;;18.10;65.00;;;;;;5010591;28;20041;-82
2022/12/31 10:29:23;;;;;;;0.85;0.30;;;18.30;63.90;;;;;;4989618;28;20451;-81
2022/12/31 10:32:15;;;;;;;0.60;0.60;;;18.20;63.30;;;;;;5012066;28;20058;-79
2022/12/31 10:35:13;;;;;;;0.30;0.30;;;18.10;63.50;;;;;;5023509;28;20065;-81
2022/12/31 10:37:39;;;;;;;0.52;0.52;;;17.90;63.60;;;;;;4990055;28;20039;-80
2022/12/31 10:40:24;;;;;;;0.40;0.40;;;17.70;63.80;;;;;;5004781;28;20089;-81
2022/12/31 10:43:04;;;;;;;0.40;0.40;;;17.60;64.20;;;;;;5004303;28;20076;-79
2022/12/31 10:45:49;;;;;;;0.70;0.50;;;17.60;64.70;;;;;;5002500;28;20102;-80
2022/12/31 10:48:38;;;;;;;0.52;0.47;;;17.50;64.60;;;;;;5012297;28;20025;-81
2022/12/31 10:51:34;;;;;;;0.75;0.60;;;17.50;64.90;;;;;;5003772;28;20044;-83
2022/12/31 10:54:21;;;;;;;0.40;0.40;;;17.50;65.00;;;;;;5002433;28;20065;-83
2022/12/31 10:57:36;;;;;;;0.35;0.35;;;17.40;64.70;;;;;;4981939;28;20026;-83
2022/12/31 11:00:13;;;;;;;0.63;0.60;;;;;;;;;;4970573;28;20508;-82
2022/12/31 11:02:39;;;;;;;0.63;0.50;;;;;;;;;;5020859;28;20029;-83
2022/12/31 11:05:08;;;;;;;0.22;0.22;;;;;;;;;;5001518;28;20030;-83
2022/12/31 11:07:53;;;;;;;0.20;0.20;;;;;;;;;;5003531;28;20029;-83
2022/12/31 11:10:42;;;;;;;0.40;0.40;;;;;;;;;;5010473;28;20018;-83
2022/12/31 11:13:14;;;;;;;0.35;0.30;;;;;;;;;;4980589;28;20027;-82
2022/12/31 11:15:40;;;;;;;;;;;;;;;;;;5001558;28;20061;-81
2022/12/31 11:18:06;;;;;;;0.50;0.50;;;;;;;;;;5022584;28;19905;-82
2022/12/31 11:20:51;;;;;;;0.38;0.38;;;;;;;;;;5016032;28;20038;-82
2022/12/31 11:23:35;;;;;;;0.60;0.60;;;;;;;;;;5012740;28;20023;-82
2022/12/31 11:26:27;;;;;;;0.45;0.45;;;;;;;;;;5023357;28;20044;-82
2022/12/31 11:29:08;;;;;;;0.40;0.32;;;;;;;;;;5008779;28;20068;-82
2022/12/31 11:31:43;;;;;;;0.73;0.68;;;;;;;;;;5000160;28;20644;-83
2022/12/31 11:34:34;;;;;;;0.65;0.40;;;;;;;;;;5002886;28;20030;-83
2022/12/31 11:37:09;;;;;;;0.30;0.30;;;;;;;;;;5006286;28;20018;-83
2022/12/31 11:39:45;;;;;;;0.65;0.50;;;;;;;;;;5006810;28;20126;-84
2022/12/31 11:42:20;;;;;;;0.75;0.50;;;;;;;;;;5001862;28;20030;-83
2022/12/31 11:45:05;;;;;;;0.40;0.40;;;;;;;;;;5003734;28;20126;-83
2022/12/31 11:47:49;;;;;;;0.32;0.32;;;;;;;;;;5023813;28;20425;-83
2022/12/31 11:50:36;;;;;;;0.63;0.25;;;;;;;;;;5021627;28;20034;-83
2022/12/31 11:53:11;;;;;;;1.38;0.52;;;;;;;;;;5011667;28;20045;-83
2022/12/31 11:56:03;;;;;;;1.08;0.73;;;;;;;;;;4996707;28;20094;-83
2022/12/31 11:58:29;;;;;;;;;;;;;;;;;;5003525;28;20034;-82
2022/12/31 12:00:57;;;;;;;1.00;0.75;;;;;;;;;;5005799;28;19924;-83
2022/12/31 12:03:23;;;;;;;1.20;0.80;;;;;;;;;;5014114;28;20030;-82
2022/12/31 12:05:49;;;;;;;0.77;0.75;;;;;;;;;;5020914;28;20054;-83
2022/12/31 12:08:15;;;;;;;2.00;0.85;;;;;;;;;;5005701;28;20030;-81
2022/12/31 12:10:44;;;;;;;0.70;0.60;;;;;;;;;;5015142;28;20018;-80
2022/12/31 12:13:21;;;;;;;0.63;0.63;;;;;;;;;;5019081;28;20038;-81
2022/12/31 12:15:55;;;;;;;1.08;0.63;;;;;;;;;;5030870;28;20085;-82
2022/12/31 12:18:26;;;;;;;0.40;0.40;;;;;;;;;;5037660;28;20030;-81
2022/12/31 12:20:54;;;;;;;0.70;0.63;;;;;;;;;;5040673;28;20026;-81
2022/12/31 12:23:24;;;;;;;0.80;0.55;;;;;;;;;;5032792;28;20010;-81
2022/12/31 12:25:50;;;;;;;1.40;0.80;;;;;;;;;;5020080;28;20130;-80
2022/12/31 12:28:21;;;;;;;1.30;0.85;;;;;;;;;;5020972;28;20029;-82
2022/12/31 12:30:53;;;;;;;1.58;1.08;;;;;;;;;;5020541;28;20022;-80
2022/12/31 12:33:20;;;;;;;2.75;0.90;;;;;;;;;;5020017;28;20018;-81
2022/12/31 12:35:46;;;;;;;3.65;0.90;;;;;;;;;;5030559;28;20029;-83
2022/12/31 12:38:16;;;;;;;1.58;0.73;;;;;;;;;;5008527;28;20030;-83
2022/12/31 12:40:52;;;;;;;0.68;0.60;;;;;;;;;;5007851;28;20082;-82
2022/12/31 12:43:22;;;;;;;1.17;0.50;;;;;;;;;;5011805;28;20024;-84
2022/12/31 12:45:48;;;;;;;1.98;1.38;;;;;;;;;;5025934;28;20034;-83
2022/12/31 12:48:19;;;;;;;1.30;1.02;;;;;;;;;;5023848;28;20022;-82
2022/12/31 12:50:46;;;;;;;1.90;1.27;;;;;;;;;;5006117;28;20030;-82
2022/12/31 12:53:12;;;;;;;1.63;1.08;;;;;;;;;;5019047;28;20453;-82
2022/12/31 12:55:51;;;;;;;1.13;1.02;;;;;;;;;;5014521;28;20026;-81
2022/12/31 12:58:22;;;;;;;1.10;1.00;;;;;;;;;;5022784;28;20022;-81
2022/12/31 13:00:48;;;;;;;1.38;1.13;;;;;;;;;;5004474;28;20029;-82
2022/12/31 13:03:23;;;;;;;1.90;1.00;;;;;;;;;;5003880;28;20401;-82
2022/12/31 13:05:52;;;;;;;1.75;1.05;;;;;;;;;;5014462;28;20022;-83
2022/12/31 13:08:41;;;;;;;2.67;1.17;;;;;;;;;;5005774;28;20108;-84
2022/12/31 13:11:26;;;;;;;1.08;0.98;;;;;;;;;;5009686;28;20088;-83
2022/12/31 13:14:16;;;;;;;1.42;0.98;;;;;;;;;;5016025;28;20030;-84
2022/12/31 13:16:42;;;;;;;2.55;1.52;;;;;;;;;;5021093;28;20026;-82
2022/12/31 13:19:14;;;;;;;1.75;1.15;;;;;;;;;;5024364;28;20041;-82
2022/12/31 13:21:41;;;;;;;;;;;;;;;;;;5008141;28;20031;-82
2022/12/31 13:24:13;;;;;;;1.10;0.90;;;;;;;;;;5031968;28;19928;-82
2022/12/31 13:26:39;;;;;;;0.80;0.80;;;;;;;;;;5021769;28;20034;-82
2022/12/31 13:29:08;;;;;;;1.33;1.00;;;;;;;;;;5023457;28;20038;-83
2022/12/31 13:31:37;;;;;;;1.17;0.90;;;;;;;;;;5023372;28;20034;-83
2022/12/31 13:34:10;;;;;;;0.50;0.50;;;;;;;;;;5013369;28;20094;-84
2022/12/31 13:36:39;;;;;;;0.50;0.50;;;;;;;;;;5020086;28;20121;-83
2022/12/31 13:39:07;;;;;;;1.67;0.80;;;;;;;;;;5003756;28;20385;-83
2022/12/31 13:41:52;;;;;;;0.70;0.70;;;;;;;;;;5006048;28;20030;-83
2022/12/31 13:44:39;;;;;;;1.00;0.75;;;;;;;;;;5003659;28;20054;-83
2022/12/31 13:47:24;;;;;;;1.92;1.00;;;;;;;;;;5000146;28;20052;-82
2022/12/31 13:50:10;;;;;;;2.28;0.63;;;;;;;;;;5012626;28;20400;-83
2022/12/31 13:53:00;;;;;;;0.85;0.65;;;;;;;;;;5006822;28;20034;-82